Time;durP1;ratioP1;P1;durP2;ratioP2;P2;SDS_P1;SDS_P2;PMS_P1;PMS_P2;Temp;Humidity;BMP_temperature;BMP_pressure;BME280_temperature;BME280_humidity;BME280_pressure;Samples;Min_cycle;Max_cycle;Signal;HPM_P1;HPM_P2
2022/04/16 00:00:21;;;;;;;8.38;5.60;;;16.90;58.60;;;;;;5036841;28;20499;-78
2022/04/16 00:02:54;;;;;;;7.90;6.10;;;16.90;58.00;;;;;;5036604;28;20030;-81
2022/04/16 00:05:23;;;;;;;9.18;6.50;;;16.70;58.90;;;;;;5020253;28;20028;-80
2022/04/16 00:08:06;;;;;;;8.30;6.00;;;16.70;58.80;;;;;;5038591;28;20025;-81
2022/04/16 00:10:33;;;;;;;7.70;5.85;;;16.70;58.60;;;;;;5038660;28;20032;-83
2022/04/16 00:12:59;;;;;;;8.63;6.35;;;16.90;58.20;;;;;;5056536;28;20537;-79
2022/04/16 00:15:26;;;;;;;7.85;6.32;;;16.90;58.10;;;;;;5037862;28;20123;-81
2022/04/16 00:17:52;;;;;;;8.60;6.55;;;16.60;59.00;;;;;;5056367;28;20421;-83
2022/04/16 00:20:18;;;;;;;9.15;6.45;;;16.50;59.20;;;;;;5056124;28;20025;-80
2022/04/16 00:22:44;;;;;;;8.68;6.43;;;16.40;59.60;;;;;;5038434;28;20047;-81
2022/04/16 00:25:11;;;;;;;9.93;6.90;;;16.40;59.50;;;;;;5027786;28;20075;-83
2022/04/16 00:27:38;;;;;;;9.25;6.88;;;16.20;59.80;;;;;;5016056;28;20385;-81
2022/04/16 00:30:04;;;;;;;9.07;6.57;;;16.40;59.10;;;;;;5031602;28;20025;-80
2022/04/16 00:32:30;;;;;;;9.15;6.97;;;16.60;58.80;;;;;;5017662;28;20400;-83
2022/04/16 00:34:55;;;;;;;9.80;7.55;;;16.40;59.10;;;;;;5015189;28;20072;-81
2022/04/16 00:37:21;;;;;;;10.10;7.15;;;16.40;59.00;;;;;;5014793;28;20037;-82
2022/04/16 00:39:47;;;;;;;9.95;6.97;;;16.50;59.00;;;;;;5016361;28;20026;-80
2022/04/16 00:42:13;;;;;;;13.18;7.53;;;16.40;59.10;;;;;;5017183;28;20053;-80
2022/04/16 00:44:39;;;;;;;10.45;7.40;;;16.40;59.40;;;;;;5014956;28;20350;-80
2022/04/16 00:47:05;;;;;;;17.77;7.50;;;16.40;59.10;;;;;;5024145;28;20025;-82
2022/04/16 00:49:31;;;;;;;9.80;7.70;;;16.20;59.40;;;;;;5034689;28;20163;-82
2022/04/16 00:51:57;;;;;;;10.00;7.32;;;16.00;60.00;;;;;;5035604;28;20481;-82
2022/04/16 00:54:23;;;;;;;9.93;7.65;;;16.10;60.10;;;;;;5035834;28;20025;-83
2022/04/16 00:56:48;;;;;;;10.35;7.95;;;15.90;60.40;;;;;;5027980;28;20072;-84
2022/04/16 00:59:14;;;;;;;10.57;7.32;;;16.00;59.80;;;;;;5016190;28;20495;-82
2022/04/16 01:01:40;;;;;;;10.60;7.75;;;16.00;60.10;;;;;;5014256;28;20026;-81
2022/04/16 01:04:06;;;;;;;10.52;7.70;;;15.80;60.70;;;;;;5015665;28;20077;-80
2022/04/16 01:06:39;;;;;;;11.30;8.10;;;15.90;60.40;;;;;;5016378;28;20026;-81
2022/04/16 01:09:05;;;;;;;10.13;7.75;;;16.20;59.80;;;;;;5015830;28;20542;-80
2022/04/16 01:11:33;;;;;;;10.75;7.82;;;16.00;59.90;;;;;;5014533;28;20072;-81
2022/04/16 01:14:00;;;;;;;11.25;8.27;;;15.90;60.00;;;;;;5016649;28;20018;-78
2022/04/16 01:16:29;;;;;;;12.93;8.80;;;16.30;59.40;;;;;;5015748;28;20026;-82
2022/04/16 01:18:55;;;;;;;12.98;8.82;;;16.40;58.90;;;;;;5015524;28;20037;-83
2022/04/16 01:21:21;;;;;;;11.80;8.82;;;16.40;59.00;;;;;;5014409;28;20018;-83
2022/04/16 01:23:47;;;;;;;11.85;8.90;;;16.30;59.30;;;;;;5021106;28;20053;-79
2022/04/16 01:26:13;;;;;;;12.52;9.27;;;16.00;59.70;;;;;;5020724;28;20037;-81
2022/04/16 01:28:40;;;;;;;12.88;8.80;;;15.50;60.90;;;;;;5017408;28;20053;-81
2022/04/16 01:31:06;;;;;;;13.10;9.27;;;15.50;61.10;;;;;;5033821;28;20032;-79
2022/04/16 01:33:34;;;;;;;13.27;9.73;;;15.80;60.70;;;;;;5033742;28;20037;-81
2022/04/16 01:36:00;;;;;;;13.45;10.20;;;16.00;60.00;;;;;;5017238;28;20029;-80
2022/04/16 01:38:25;;;;;;;14.48;11.10;;;15.80;60.20;;;;;;5034771;28;20084;-78
2022/04/16 01:40:57;;;;;;;13.35;10.30;;;15.90;60.20;;;;;;5016892;28;20095;-83
2022/04/16 01:43:23;;;;;;;15.15;11.02;;;15.70;60.90;;;;;;5017193;28;20029;-79
2022/04/16 01:45:50;;;;;;;16.05;11.52;;;15.70;60.50;;;;;;5016877;28;20025;-82
2022/04/16 01:48:19;;;;;;;16.17;11.80;;;15.90;60.30;;;;;;5017115;28;20029;-82
2022/04/16 01:50:46;;;;;;;16.02;12.02;;;15.70;60.40;;;;;;5016808;28;20022;-82
2022/04/16 01:53:12;;;;;;;17.00;12.30;;;15.70;60.70;;;;;;5016989;28;20038;-81
2022/04/16 01:55:38;;;;;;;15.60;11.60;;;15.60;61.20;;;;;;5015021;28;20041;-83
2022/04/16 01:58:06;;;;;;;16.95;12.40;;;15.90;60.60;;;;;;4997307;28;20030;-83
2022/04/16 02:00:33;;;;;;;18.00;13.00;;;16.00;60.20;;;;;;4997416;28;20033;-82
2022/04/16 02:03:01;;;;;;;19.00;12.98;;;16.10;59.80;;;;;;4997630;28;20490;-83
2022/04/16 02:05:27;;;;;;;18.40;12.70;;;16.30;59.40;;;;;;5034342;28;20032;-83
2022/04/16 02:07:54;;;;;;;17.55;13.05;;;16.40;59.30;;;;;;5016581;28;20022;-82
2022/04/16 02:10:19;;;;;;;17.85;13.02;;;16.20;59.30;;;;;;5016462;28;20027;-84
2022/04/16 02:12:45;;;;;;;17.30;12.50;;;16.20;59.30;;;;;;5026442;28;20033;-85
2022/04/16 02:15:11;;;;;;;17.95;12.48;;;15.90;59.80;;;;;;5035927;28;20052;-81
2022/04/16 02:17:38;;;;;;;18.13;13.35;;;15.70;60.40;;;;;;5035534;28;20102;-84
2022/04/16 02:20:09;;;;;;;18.63;13.25;;;15.90;60.10;;;;;;5036092;28;20067;-84
2022/04/16 02:22:52;;;;;;;17.60;12.35;;;15.80;60.30;;;;;;5039414;28;20025;-82
2022/04/16 02:25:19;;;;;;;17.80;12.43;;;15.60;60.50;;;;;;5035967;28;20507;-81
2022/04/16 02:27:46;;;;;;;18.02;13.35;;;15.40;60.80;;;;;;5036157;28;20028;-81
2022/04/16 02:30:13;;;;;;;17.90;13.13;;;15.30;61.50;;;;;;5036152;28;20036;-81
2022/04/16 02:32:48;;;;;;;24.75;13.43;;;15.30;61.20;;;;;;5046010;28;20037;-83
2022/04/16 02:35:15;;;;;;;17.60;13.02;;;15.30;61.60;;;;;;5035814;28;20450;-78
2022/04/16 02:37:44;;;;;;;17.35;13.23;;;15.30;61.40;;;;;;5036578;28;20405;-80
2022/04/16 02:40:11;;;;;;;18.70;12.68;;;15.50;60.90;;;;;;5036045;28;20050;-80
2022/04/16 02:42:38;;;;;;;19.52;13.32;;;15.60;60.60;;;;;;5035821;28;20025;-81
2022/04/16 02:47:49;;;;;;;18.10;12.75;;;15.50;60.70;;;;;;5031554;28;20064;-82
2022/04/16 02:50:15;;;;;;;16.83;12.63;;;15.80;60.00;;;;;;5033681;28;20053;-80
2022/04/16 02:52:41;;;;;;;17.92;13.05;;;15.90;59.40;;;;;;5033751;28;20072;-80
2022/04/16 02:55:07;;;;;;;17.05;13.13;;;15.80;59.60;;;;;;5015905;28;20053;-80
2022/04/16 02:57:33;;;;;;;17.38;12.35;;;15.70;59.90;;;;;;5015871;28;20059;-81
2022/04/16 03:00:00;;;;;;;16.80;12.30;;;15.80;59.60;;;;;;5015743;28;20022;-80
2022/04/16 03:02:25;;;;;;;16.77;12.05;;;15.90;59.50;;;;;;5031953;28;20103;-85
2022/04/16 03:04:51;;;;;;;18.02;12.52;;;16.00;59.20;;;;;;5015424;28;20116;-79
2022/04/16 03:07:17;;;;;;;18.58;12.65;;;15.60;59.60;;;;;;5028360;28;20479;-81
2022/04/16 03:09:44;;;;;;;17.20;11.93;;;15.50;60.00;;;;;;5035294;28;20061;-82
2022/04/16 03:12:10;;;;;;;16.10;12.18;;;15.50;60.00;;;;;;5053233;28;20051;-84
2022/04/16 03:17:32;;;;;;;17.45;11.85;;;15.50;60.20;;;;;;5037571;28;20112;-80
2022/04/16 03:19:58;;;;;;;15.77;11.82;;;14.90;61.00;;;;;;5033244;28;20025;-82
2022/04/16 03:22:24;;;;;;;15.85;11.50;;;14.90;61.70;;;;;;5033217;28;20021;-81
2022/04/16 03:24:50;;;;;;;15.82;11.73;;;15.00;61.10;;;;;;5035382;28;20048;-81
2022/04/16 03:27:17;;;;;;;15.65;11.90;;;15.00;61.00;;;;;;5035387;28;20041;-81
2022/04/16 03:29:42;;;;;;;14.73;10.45;;;15.00;61.10;;;;;;5035255;28;20051;-81
2022/04/16 03:32:09;;;;;;;16.05;11.20;;;15.00;61.30;;;;;;5035367;28;20033;-81
2022/04/16 03:34:37;;;;;;;13.38;10.15;;;14.90;60.90;;;;;;5033670;28;20419;-79
2022/04/16 03:37:03;;;;;;;14.05;10.45;;;15.00;60.90;;;;;;5048712;28;20028;-81
2022/04/16 03:39:28;;;;;;;13.50;9.60;;;15.30;60.30;;;;;;5034915;28;20025;-79
2022/04/16 03:41:54;;;;;;;13.32;10.15;;;15.40;59.70;;;;;;5052752;28;20028;-79
2022/04/16 03:44:20;;;;;;;14.38;10.25;;;15.50;59.60;;;;;;5034855;28;20033;-79
2022/04/16 03:46:46;;;;;;;13.77;10.02;;;15.90;58.90;;;;;;5016096;28;20393;-81
2022/04/16 03:49:11;;;;;;;16.00;9.57;;;16.00;58.30;;;;;;5032807;28;20037;-80
2022/04/16 03:51:37;;;;;;;13.43;9.40;;;15.70;59.00;;;;;;5032719;28;20026;-81
2022/04/16 04:02:16;;;;;;;13.57;9.18;;;15.60;58.70;;;;;;5032895;28;20028;-81
2022/04/16 04:04:43;;;;;;;13.23;9.43;;;15.60;59.20;;;;;;5032515;28;20045;-80
2022/04/16 04:07:10;;;;;;;12.75;9.25;;;15.80;59.00;;;;;;5014973;28;20419;-81
2022/04/16 04:09:38;;;;;;;12.70;9.20;;;15.80;58.30;;;;;;5014945;28;20112;-78
2022/04/16 04:12:08;;;;;;;11.45;8.80;;;15.60;59.00;;;;;;5032694;28;20025;-80
2022/04/16 04:14:46;;;;;;;13.27;9.80;;;15.70;59.20;;;;;;5015492;28;20036;-81
2022/04/16 04:17:12;;;;;;;11.15;8.05;;;15.80;58.70;;;;;;5032810;28;20041;-81
2022/04/16 04:19:43;;;;;;;12.20;9.02;;;15.70;58.90;;;;;;5015150;28;20017;-81
2022/04/16 04:22:10;;;;;;;;;;;15.50;58.90;;;;;;5033234;28;20449;-81
2022/04/16 04:24:39;;;;;;;11.80;8.50;;;15.80;58.70;;;;;;5015194;28;20284;-81
2022/04/16 04:27:06;;;;;;;11.40;8.43;;;15.80;58.50;;;;;;5042118;28;20025;-80
2022/04/16 04:29:33;;;;;;;11.20;7.80;;;16.10;58.20;;;;;;5034800;28;20476;-81
2022/04/16 04:31:59;;;;;;;10.68;8.05;;;16.10;57.80;;;;;;5034464;28;20029;-82
2022/04/16 04:34:25;;;;;;;10.85;7.82;;;16.10;57.80;;;;;;5052388;28;20043;-82
2022/04/16 04:36:51;;;;;;;10.85;8.00;;;15.90;58.10;;;;;;5033823;28;20017;-80
2022/04/16 04:39:17;;;;;;;10.75;8.07;;;16.00;57.90;;;;;;5034344;28;20151;-80
2022/04/16 04:41:43;;;;;;;10.40;7.57;;;16.20;57.40;;;;;;5038080;28;20116;-79
2022/04/16 04:44:13;;;;;;;11.07;7.75;;;16.30;57.40;;;;;;5037826;28;20314;-81
2022/04/16 04:46:40;;;;;;;10.57;7.67;;;16.40;57.20;;;;;;5026180;28;20033;-82
2022/04/16 04:49:09;;;;;;;10.15;7.75;;;16.30;57.10;;;;;;5018303;28;20076;-80
2022/04/16 04:51:39;;;;;;;11.85;7.57;;;16.40;56.80;;;;;;5018131;28;20380;-79
2022/04/16 04:54:06;;;;;;;10.20;7.50;;;16.50;56.50;;;;;;5054292;28;20056;-82
2022/04/16 04:56:31;;;;;;;9.82;7.72;;;16.70;56.00;;;;;;5030974;28;20021;-81
2022/04/16 04:58:57;;;;;;;13.95;9.70;;;16.50;56.50;;;;;;5018157;28;20041;-81
2022/04/16 05:01:23;;;;;;;11.15;8.48;;;16.60;56.50;;;;;;5018277;28;20029;-80
2022/04/16 05:03:49;;;;;;;10.07;7.40;;;16.70;56.10;;;;;;5034782;28;20017;-79
2022/04/16 05:06:14;;;;;;;10.77;7.68;;;17.10;55.40;;;;;;5008819;28;20034;-81
2022/04/16 05:08:40;;;;;;;10.45;7.22;;;16.80;55.90;;;;;;4672937;28;10000374;-78
2022/04/16 05:11:06;;;;;;;10.82;7.88;;;16.70;56.00;;;;;;5031233;28;20025;-78
2022/04/16 05:13:32;;;;;;;11.32;7.85;;;16.50;56.90;;;;;;5015891;28;20033;-79
2022/04/16 05:15:57;;;;;;;9.95;7.43;;;16.50;56.40;;;;;;5015775;28;20053;-81
2022/04/16 05:18:23;;;;;;;18.77;7.60;;;16.90;55.60;;;;;;5033027;28;20038;-79
2022/04/16 05:20:49;;;;;;;9.48;7.07;;;17.00;55.50;;;;;;5031036;28;20013;-79
2022/04/16 05:23:15;;;;;;;10.98;7.22;;;17.20;55.30;;;;;;5031701;28;20048;-80
2022/04/16 05:25:40;;;;;;;12.35;7.32;;;17.40;55.10;;;;;;5030110;28;20017;-78
2022/04/16 05:28:06;;;;;;;9.38;7.13;;;17.10;54.80;;;;;;5031189;28;20021;-78
2022/04/16 05:30:38;;;;;;;8.98;6.75;;;16.90;55.40;;;;;;5030682;28;20061;-78
2022/04/16 05:33:16;;;;;;;9.68;7.30;;;17.40;54.90;;;;;;5012360;28;20048;-78
2022/04/16 05:35:42;;;;;;;10.55;8.35;;;17.70;54.30;;;;;;5013924;28;20059;-80
2022/04/16 05:38:08;;;;;;;10.27;7.88;;;18.00;53.90;;;;;;5012926;28;20021;-79
2022/04/16 05:40:34;;;;;;;9.00;6.80;;;18.10;53.30;;;;;;5032528;28;20024;-78
2022/04/16 05:42:59;;;;;;;7.88;6.07;;;18.10;53.00;;;;;;5012705;28;20026;-80
2022/04/16 05:45:25;;;;;;;9.35;6.82;;;18.30;52.90;;;;;;5014116;28;20017;-80
2022/04/16 05:47:51;;;;;;;9.63;6.78;;;18.10;53.30;;;;;;5033069;28;20485;-79
2022/04/16 05:50:16;;;;;;;9.18;6.40;;;17.80;53.60;;;;;;5015295;28;20476;-83
2022/04/16 05:52:42;;;;;;;7.68;5.72;;;17.60;54.40;;;;;;5016002;28;20492;-79
2022/04/16 05:55:09;;;;;;;9.10;6.30;;;17.60;53.90;;;;;;5024196;28;20483;-80
2022/04/16 05:57:35;;;;;;;8.40;6.00;;;17.90;53.50;;;;;;5035800;28;20036;-79
2022/04/16 06:00:01;;;;;;;8.18;5.90;;;18.00;53.10;;;;;;5031356;28;20360;-78
2022/04/16 06:02:27;;;;;;;8.13;6.00;;;18.10;53.30;;;;;;5009112;28;20025;-79
2022/04/16 06:04:53;;;;;;;8.20;5.57;;;18.30;52.70;;;;;;5027257;28;20041;-80
2022/04/16 06:07:18;;;;;;;10.70;6.25;;;18.60;52.10;;;;;;5014400;28;20025;-80
2022/04/16 06:09:44;;;;;;;7.32;5.53;;;18.90;51.80;;;;;;5013351;28;20560;-80
2022/04/16 06:12:12;;;;;;;7.57;5.63;;;19.10;51.90;;;;;;5021040;28;20523;-80
2022/04/16 06:14:38;;;;;;;7.75;5.80;;;18.80;51.60;;;;;;5020308;28;20033;-80
2022/04/16 06:17:04;;;;;;;7.43;5.93;;;18.70;52.30;;;;;;5026544;28;20029;-79
2022/04/16 06:19:30;;;;;;;7.72;6.20;;;18.50;52.00;;;;;;5013022;28;20017;-81
2022/04/16 06:21:55;;;;;;;9.18;5.88;;;18.60;52.30;;;;;;5015255;28;20034;-83
2022/04/16 06:24:21;;;;;;;9.00;5.82;;;18.60;52.20;;;;;;5012999;28;20582;-78
2022/04/16 06:26:47;;;;;;;7.63;5.60;;;18.80;52.20;;;;;;5029948;28;20026;-79
2022/04/16 06:29:14;;;;;;;8.30;5.07;;;18.80;52.00;;;;;;5012973;28;20029;-79
2022/04/16 06:31:40;;;;;;;8.38;5.93;;;19.20;51.50;;;;;;5012486;28;20080;-80
2022/04/16 06:34:06;;;;;;;8.95;5.70;;;19.00;51.50;;;;;;5016266;28;20029;-81
2022/04/16 06:36:31;;;;;;;8.02;5.30;;;18.70;51.80;;;;;;5020655;28;20047;-80
2022/04/16 06:38:57;;;;;;;7.65;5.18;;;18.70;52.10;;;;;;5015865;28;20745;-81
2022/04/16 06:41:22;;;;;;;6.78;5.10;;;19.10;52.10;;;;;;5032403;28;20053;-80
2022/04/16 06:43:48;;;;;;;7.28;5.32;;;19.00;51.60;;;;;;5032462;28;20395;-81
2022/04/16 06:46:14;;;;;;;7.85;5.50;;;19.00;51.80;;;;;;5035011;28;20033;-80
2022/04/16 06:48:40;;;;;;;8.57;5.35;;;18.80;51.50;;;;;;5017289;28;20033;-80
2022/04/16 06:51:05;;;;;;;8.40;5.70;;;18.30;52.60;;;;;;5012177;28;20531;-80
2022/04/16 06:53:31;;;;;;;8.27;5.95;;;18.10;53.20;;;;;;5012689;28;20442;-80
2022/04/16 06:56:00;;;;;;;6.20;4.90;;;18.50;52.60;;;;;;5030146;28;20147;-80
2022/04/16 06:58:28;;;;;;;7.55;5.40;;;18.90;52.30;;;;;;5028277;28;20385;-80
2022/04/16 07:00:55;;;;;;;8.30;5.25;;;19.70;51.40;;;;;;5012908;28;20127;-79
2022/04/16 07:03:21;;;;;;;7.40;5.80;;;19.90;50.80;;;;;;5002517;28;20037;-80
2022/04/16 07:05:46;;;;;;;7.25;5.40;;;20.10;49.70;;;;;;4994440;28;20037;-84
2022/04/16 07:08:12;;;;;;;7.28;5.60;;;20.40;49.40;;;;;;5026740;28;20037;-81
2022/04/16 07:10:39;;;;;;;7.63;6.22;;;20.60;48.30;;;;;;5015319;28;20029;-81
2022/04/16 07:13:05;;;;;;;6.38;5.05;;;20.20;49.70;;;;;;5012006;28;20029;-81
2022/04/16 07:15:33;;;;;;;7.18;5.55;;;19.80;50.10;;;;;;5030648;28;20030;-79
2022/04/16 07:17:59;;;;;;;6.28;4.78;;;19.60;50.20;;;;;;5034189;28;20033;-80
2022/04/16 07:20:25;;;;;;;7.38;4.82;;;19.20;51.70;;;;;;5012528;28;20061;-79
2022/04/16 07:22:50;;;;;;;6.95;4.97;;;19.00;50.70;;;;;;5046230;28;20049;-81
2022/04/16 07:25:16;;;;;;;5.97;4.22;;;19.00;51.40;;;;;;5011716;28;20144;-79
2022/04/16 07:27:43;;;;;;;5.95;4.43;;;19.50;51.30;;;;;;5012985;28;20025;-79
2022/04/16 07:30:13;;;;;;;6.00;4.55;;;20.30;50.20;;;;;;5013314;28;20105;-81
2022/04/16 07:32:41;;;;;;;7.07;3.97;;;20.60;49.50;;;;;;5023854;28;20132;-89
2022/04/16 07:35:07;;;;;;;6.78;4.00;;;20.90;49.00;;;;;;5031887;28;20104;-78
2022/04/16 07:37:33;;;;;;;6.10;4.47;;;21.00;48.40;;;;;;5025150;28;20048;-79
2022/04/16 07:39:58;;;;;;;8.68;4.00;;;21.00;48.10;;;;;;5015217;28;20516;-81
2022/04/16 07:42:28;;;;;;;5.82;3.97;;;20.80;48.50;;;;;;5012335;28;20056;-77
2022/04/16 07:44:54;;;;;;;5.95;3.95;;;20.90;48.60;;;;;;4997926;28;20040;-78
2022/04/16 07:47:22;;;;;;;6.88;4.32;;;21.10;48.30;;;;;;5012153;28;20029;-79
2022/04/16 07:49:48;;;;;;;5.38;3.58;;;21.00;47.50;;;;;;5011633;28;20025;-79
2022/04/16 07:52:14;;;;;;;5.82;4.13;;;21.10;48.20;;;;;;5012624;28;20037;-79
2022/04/16 07:54:40;;;;;;;5.35;3.90;;;21.20;47.40;;;;;;5012635;28;20036;-79
2022/04/16 07:57:06;;;;;;;5.50;3.72;;;21.10;47.70;;;;;;5012386;28;20072;-83
2022/04/16 07:59:32;;;;;;;5.03;3.67;;;20.80;47.30;;;;;;5012039;28;20141;-80
2022/04/16 08:01:58;;;;;;;5.38;3.88;;;20.20;48.70;;;;;;5013128;28;20825;-82
2022/04/16 08:04:24;;;;;;;7.32;4.63;;;20.10;48.80;;;;;;5015010;28;20022;-84
2022/04/16 08:06:50;;;;;;;6.53;3.33;;;20.30;48.40;;;;;;5023108;28;20091;-80
2022/04/16 08:09:17;;;;;;;4.88;3.35;;;20.80;47.90;;;;;;5030883;28;20057;-79
2022/04/16 08:11:43;;;;;;;5.00;3.10;;;20.30;49.20;;;;;;5013663;28;20087;-81
2022/04/16 08:14:08;;;;;;;4.93;2.88;;;21.10;47.70;;;;;;5035218;28;20022;-80
2022/04/16 08:16:34;;;;;;;5.30;3.00;;;22.20;46.70;;;;;;5015511;28;20034;-80
2022/04/16 08:19:00;;;;;;;4.07;2.80;;;23.30;45.90;;;;;;5033903;28;20060;-81
2022/04/16 08:21:26;;;;;;;4.68;2.97;;;24.00;44.40;;;;;;5016833;28;20068;-83
2022/04/16 08:24:13;;;;;;;4.80;2.95;;;25.30;44.00;;;;;;5016689;28;20136;-83
2022/04/16 08:26:45;;;;;;;5.35;2.90;;;25.40;42.40;;;;;;5015843;28;20113;-79
2022/04/16 08:29:19;;;;;;;3.92;2.67;;;25.60;43.00;;;;;;4996366;28;20143;-80
2022/04/16 08:31:45;;;;;;;8.52;2.83;;;26.70;41.60;;;;;;4997067;28;20120;-87
2022/04/16 08:34:23;;;;;;;4.85;3.17;;;26.80;41.10;;;;;;5015453;28;20113;-88
2022/04/16 08:36:49;;;;;;;4.25;2.72;;;26.30;41.00;;;;;;4997215;28;20037;-80
2022/04/16 08:39:15;;;;;;;6.28;2.53;;;27.00;40.50;;;;;;5026497;28;20021;-79
2022/04/16 08:41:41;;;;;;;5.93;2.95;;;27.00;41.10;;;;;;5016439;28;20033;-84
2022/04/16 08:44:14;;;;;;;4.80;2.47;;;28.20;39.70;;;;;;5018550;28;20476;-86
2022/04/16 08:46:39;;;;;;;4.00;2.80;;;28.00;39.10;;;;;;5018496;28;20044;-84
2022/04/16 08:49:06;;;;;;;4.38;2.88;;;27.20;38.60;;;;;;5036824;28;20033;-82
2022/04/16 08:51:32;;;;;;;4.50;2.90;;;26.90;39.40;;;;;;5016639;28;20480;-80
2022/04/16 08:53:59;;;;;;;4.20;2.80;;;27.10;39.70;;;;;;5013402;28;20117;-80
2022/04/16 08:56:27;;;;;;;4.30;2.67;;;25.30;39.80;;;;;;5017205;28;20022;-80
2022/04/16 08:58:53;;;;;;;4.03;2.83;;;24.70;41.00;;;;;;5016991;28;20388;-80
2022/04/16 09:01:18;;;;;;;3.65;2.55;;;23.40;42.50;;;;;;5035093;28;20456;-81
2022/04/16 09:03:48;;;;;;;3.67;2.40;;;23.20;42.60;;;;;;5017026;28;20076;-81
2022/04/16 09:06:22;;;;;;;3.95;2.63;;;23.10;42.90;;;;;;5030643;28;20053;-80
2022/04/16 09:08:48;;;;;;;3.83;2.60;;;23.10;42.90;;;;;;5017155;28;20021;-81
2022/04/16 09:11:14;;;;;;;4.45;2.72;;;23.10;42.80;;;;;;5017724;28;20369;-84
2022/04/16 09:13:49;;;;;;;8.48;4.18;;;23.30;42.70;;;;;;5036145;28;20037;-84
2022/04/16 09:16:15;;;;;;;6.28;3.90;;;23.10;42.70;;;;;;5018187;28;20048;-81
2022/04/16 09:18:55;;;;;;;8.20;3.58;;;22.90;44.00;;;;;;5018140;28;20388;-81
2022/04/16 09:21:28;;;;;;;11.43;3.28;;;23.10;43.20;;;;;;5017952;28;20207;-81
2022/04/16 09:24:02;;;;;;;4.43;2.63;;;23.30;43.20;;;;;;5030038;28;20080;-81
2022/04/16 09:26:31;;;;;;;9.43;3.28;;;23.40;43.10;;;;;;5016595;28;20025;-79
2022/04/16 09:29:01;;;;;;;5.85;2.65;;;23.50;44.30;;;;;;5016847;28;20017;-81
2022/04/16 09:31:30;;;;;;;6.35;2.45;;;23.90;43.20;;;;;;5035195;28;20027;-80
2022/04/16 09:33:56;;;;;;;17.80;4.57;;;24.20;41.60;;;;;;5034894;28;20095;-82
2022/04/16 09:36:26;;;;;;;14.05;3.20;;;24.60;42.20;;;;;;5031137;28;20426;-80
2022/04/16 09:39:06;;;;;;;5.68;2.92;;;25.10;42.50;;;;;;5020919;28;20056;-80
2022/04/16 09:41:33;;;;;;;4.07;2.20;;;25.20;40.90;;;;;;5043660;28;20033;-82
2022/04/16 09:43:59;;;;;;;5.10;2.20;;;25.20;41.10;;;;;;5025767;28;20264;-82
2022/04/16 09:46:28;;;;;;;5.68;2.30;;;25.20;41.10;;;;;;5032540;28;20025;-83
2022/04/16 09:49:02;;;;;;;4.80;2.50;;;24.90;41.30;;;;;;5025040;28;20033;-82
2022/04/16 09:51:34;;;;;;;4.32;2.17;;;25.00;41.30;;;;;;5031899;28;20366;-81
2022/04/16 09:54:05;;;;;;;4.53;2.30;;;25.20;41.30;;;;;;5016074;28;20156;-79
2022/04/16 09:56:39;;;;;;;4.05;2.75;;;25.10;40.10;;;;;;4997531;28;20026;-82
2022/04/16 09:59:09;;;;;;;4.80;2.88;;;24.80;41.20;;;;;;5025129;28;20435;-79
2022/04/16 10:01:38;;;;;;;3.53;2.13;;;24.60;41.40;;;;;;5016631;28;20024;-82
2022/04/16 10:04:06;;;;;;;3.63;2.00;;;25.10;41.00;;;;;;5016249;28;20017;-83
2022/04/16 10:06:32;;;;;;;3.78;1.98;;;25.40;41.30;;;;;;5050742;28;20376;-82
2022/04/16 10:09:00;;;;;;;3.70;2.00;;;26.60;39.40;;;;;;5021972;28;20508;-82
2022/04/16 10:11:42;;;;;;;4.30;2.03;;;26.40;39.10;;;;;;5016873;28;20036;-81
2022/04/16 10:14:34;;;;;;;3.50;2.25;;;25.90;39.70;;;;;;5016416;28;20037;-81
2022/04/16 10:17:28;;;;;;;4.85;2.00;;;25.60;40.10;;;;;;5029706;28;20037;-83
2022/04/16 10:19:55;;;;;;;6.63;2.13;;;25.30;40.40;;;;;;5034185;28;20030;-84
2022/04/16 10:22:27;;;;;;;3.25;2.00;;;25.10;41.00;;;;;;5016436;28;20030;-83
2022/04/16 10:24:57;;;;;;;3.22;1.90;;;24.40;40.60;;;;;;5033938;28;20501;-82
2022/04/16 10:27:31;;;;;;;3.95;2.00;;;23.90;41.20;;;;;;5034252;28;20028;-81
2022/04/16 10:30:02;;;;;;;4.93;1.90;;;22.90;42.00;;;;;;5016303;28;20026;-80
2022/04/16 10:32:40;;;;;;;3.90;1.77;;;22.50;42.80;;;;;;5016311;28;20033;-79
2022/04/16 10:35:17;;;;;;;4.88;2.40;;;22.10;43.40;;;;;;5034266;28;20033;-83
2022/04/16 10:38:20;;;;;;;4.60;1.92;;;22.00;42.50;;;;;;5077961;27;1555668;-80
2022/04/16 10:40:57;;;;;;;5.95;1.92;;;21.90;43.40;;;;;;5092614;28;20077;-85
2022/04/16 10:43:33;;;;;;;3.90;1.90;;;21.80;43.30;;;;;;5110939;28;20020;-81
2022/04/16 10:46:04;;;;;;;3.85;2.10;;;22.00;43.70;;;;;;5093038;28;20023;-82
2022/04/16 10:48:39;;;;;;;4.93;2.30;;;22.00;43.60;;;;;;5093151;28;20032;-81
2022/04/16 10:51:06;;;;;;;3.45;2.15;;;22.50;43.70;;;;;;5111156;28;20463;-81
2022/04/16 10:53:36;;;;;;;5.93;2.70;;;22.70;43.20;;;;;;5110926;28;20096;-82
2022/04/16 10:56:12;;;;;;;;;;;23.00;42.40;;;;;;5093302;28;20028;-81
2022/04/16 10:58:44;;;;;;;5.60;2.85;;;23.20;42.20;;;;;;5110761;28;19908;-80
2022/04/16 11:01:11;;;;;;;4.78;2.60;;;22.50;42.30;;;;;;5110919;28;20103;-83
2022/04/16 11:03:50;;;;;;;4.07;2.38;;;22.80;43.00;;;;;;5111133;28;20065;-83
2022/04/16 11:06:17;;;;;;;3.22;1.98;;;22.00;43.10;;;;;;5110939;28;20039;-81
2022/04/16 11:08:47;;;;;;;4.43;2.30;;;21.80;43.40;;;;;;5110554;28;20550;-82
2022/04/16 11:11:15;;;;;;;3.60;2.00;;;21.60;42.90;;;;;;5092204;28;20028;-81
2022/04/16 11:13:42;;;;;;;3.22;1.95;;;21.30;44.00;;;;;;5110449;28;20074;-80
2022/04/16 11:16:09;;;;;;;3.22;1.70;;;21.60;43.50;;;;;;5092394;28;20039;-85
2022/04/16 11:18:47;;;;;;;3.38;2.10;;;21.70;43.00;;;;;;5092513;28;20020;-81
2022/04/16 11:21:19;;;;;;;3.50;1.80;;;21.70;43.30;;;;;;5100806;28;20497;-80
2022/04/16 11:23:45;;;;;;;4.43;2.00;;;22.10;42.60;;;;;;5071768;28;20032;-83
2022/04/16 11:34:30;;;;;;;5.13;1.70;;;23.90;40.30;;;;;;5089870;28;20085;-80
2022/04/16 11:36:58;;;;;;;6.13;2.50;;;23.10;41.70;;;;;;5071527;28;20062;-82
2022/04/16 11:39:31;;;;;;;2.80;1.60;;;22.40;42.10;;;;;;5071645;28;20552;-83
2022/04/16 11:41:59;;;;;;;2.25;1.50;;;22.50;43.50;;;;;;5071465;28;20131;-80
2022/04/16 11:44:38;;;;;;;3.75;1.50;;;22.70;42.30;;;;;;5089720;28;20035;-82
2022/04/16 11:47:09;;;;;;;3.58;1.65;;;22.90;42.20;;;;;;5089575;28;20028;-84
2022/04/16 11:49:37;;;;;;;4.90;1.50;;;23.00;41.80;;;;;;5075390;28;20349;-82
2022/04/16 11:52:03;;;;;;;3.83;1.35;;;23.10;41.30;;;;;;5057966;28;20070;-81
2022/04/16 11:54:30;;;;;;;2.70;1.50;;;23.30;41.70;;;;;;5076015;28;20086;-81
2022/04/16 11:56:56;;;;;;;3.30;1.50;;;23.70;41.20;;;;;;5075823;28;20029;-83
2022/04/16 11:59:24;;;;;;;2.50;1.23;;;23.70;41.20;;;;;;5057788;28;20430;-81
2022/04/16 12:02:07;;;;;;;2.72;1.40;;;23.70;41.20;;;;;;5057905;28;20031;-82
2022/04/16 12:04:35;;;;;;;4.38;1.38;;;23.30;40.90;;;;;;5075622;28;20522;-82
2022/04/16 12:07:01;;;;;;;3.00;1.52;;;23.30;40.90;;;;;;5075804;28;20021;-81
2022/04/16 12:09:27;;;;;;;2.60;1.30;;;22.80;41.20;;;;;;5075909;28;20038;-83
2022/04/16 12:11:55;;;;;;;2.50;1.40;;;22.50;42.00;;;;;;5057332;28;20024;-81
2022/04/16 12:14:23;;;;;;;2.50;1.30;;;22.60;41.90;;;;;;5075628;28;20024;-81
2022/04/16 12:17:00;;;;;;;2.78;1.60;;;22.10;41.80;;;;;;5075740;28;20036;-83
2022/04/16 12:19:44;;;;;;;2.53;1.50;;;21.80;43.10;;;;;;5076169;28;20048;-81
2022/04/16 12:22:16;;;;;;;4.20;1.52;;;21.90;42.60;;;;;;5057854;28;20118;-83
2022/04/16 12:24:41;;;;;;;2.40;1.40;;;21.40;43.30;;;;;;5057405;28;20057;-82
2022/04/16 12:27:07;;;;;;;9.80;4.10;;;21.50;42.50;;;;;;5057746;28;20121;-82
2022/04/16 12:29:33;;;;;;;5.72;2.45;;;20.90;43.50;;;;;;5057592;28;20056;-81
2022/04/16 12:31:59;;;;;;;4.30;2.10;;;21.00;43.50;;;;;;5056871;28;20036;-81
2022/04/16 12:34:25;;;;;;;4.85;2.53;;;20.80;43.10;;;;;;5075168;28;20016;-81
2022/04/16 12:36:52;;;;;;;4.07;1.90;;;20.50;43.60;;;;;;5057133;28;20049;-84
2022/04/16 12:39:17;;;;;;;3.80;1.42;;;20.30;44.30;;;;;;5056941;28;20475;-81
2022/04/16 12:41:45;;;;;;;3.20;1.70;;;20.60;43.50;;;;;;5075188;28;20021;-82
2022/04/16 12:44:11;;;;;;;9.45;4.63;;;20.60;43.70;;;;;;5074941;28;20027;-82
2022/04/16 12:46:37;;;;;;;11.32;7.15;;;20.80;43.70;;;;;;5057273;28;20025;-83
2022/04/16 12:49:04;;;;;;;5.90;3.10;;;20.50;43.70;;;;;;5057039;28;20384;-80
2022/04/16 12:51:29;;;;;;;34.78;17.58;;;20.40;43.60;;;;;;5056717;28;20077;-82
2022/04/16 12:53:55;;;;;;;4.82;2.88;;;20.50;43.90;;;;;;5057234;28;20025;-82
2022/04/16 12:56:20;;;;;;;5.60;3.33;;;20.50;43.30;;;;;;5057254;28;20075;-84
2022/04/16 12:58:46;;;;;;;7.13;3.70;;;20.80;43.90;;;;;;5057510;28;20035;-84
2022/04/16 13:01:12;;;;;;;5.82;2.55;;;20.70;43.10;;;;;;5056225;28;20020;-84
2022/04/16 13:03:41;;;;;;;3.00;1.98;;;21.00;43.20;;;;;;5074913;28;20361;-81
2022/04/16 13:06:08;;;;;;;2.90;1.50;;;20.80;43.60;;;;;;5074902;28;20021;-83